Time;durP1;ratioP1;P1;durP2;ratioP2;P2;SDS_P1;SDS_P2;PMS_P1;PMS_P2;Temp;Humidity;BMP_temperature;BMP_pressure;BME280_temperature;BME280_humidity;BME280_pressure;Samples;Min_cycle;Max_cycle;Signal;HPM_P1;HPM_P2
2021/04/20 00:02:14;;;;;;;4.65;3.08;;;;;;;22.73;32.26;100286.25;1703612;83;21004;-57
2021/04/20 00:04:42;;;;;;;5.03;3.47;;;;;;;22.87;32.19;100282.19;1722460;83;20936;-57
2021/04/20 00:07:10;;;;;;;4.40;2.72;;;;;;;22.83;31.96;100273.64;1703653;83;20953;-57
2021/04/20 00:09:37;;;;;;;3.95;3.55;;;;;;;22.82;32.03;100274.63;1703829;83;20980;-57
2021/04/20 00:12:06;;;;;;;3.47;3.17;;;;;;;22.65;32.23;100284.84;1722473;83;21449;-57
2021/04/20 00:14:35;;;;;;;4.15;3.62;;;;;;;22.95;31.76;100295.17;1703874;83;21008;-57
2021/04/20 00:17:05;;;;;;;4.22;3.83;;;;;;;22.84;32.13;100298.58;1722474;83;20913;-57
2021/04/20 00:19:32;;;;;;;3.37;3.08;;;;;;;22.75;32.18;100308.38;1722582;83;20933;-57
2021/04/20 00:22:00;;;;;;;3.70;2.92;;;;;;;22.85;31.94;100309.13;1722477;83;20941;-57
2021/04/20 00:24:28;;;;;;;3.25;2.95;;;;;;;23.07;31.67;100311.00;1703751;83;21165;-57
2021/04/20 00:26:55;;;;;;;3.33;2.85;;;;;;;22.66;32.08;100303.42;1722446;83;20996;-57
2021/04/20 00:29:23;;;;;;;4.12;3.55;;;;;;;22.62;32.29;100296.69;1703734;83;21007;-57
2021/04/20 00:31:50;;;;;;;6.17;2.87;;;;;;;22.75;31.99;100274.39;1703815;83;20949;-57
2021/04/20 00:34:18;;;;;;;4.53;2.92;;;;;;;22.60;32.25;100265.19;1722558;83;20941;-57
2021/04/20 00:36:46;;;;;;;3.30;3.00;;;;;;;22.67;32.23;100256.05;1722473;83;21231;-57
2021/04/20 00:39:14;;;;;;;3.95;3.45;;;;;;;22.73;32.14;100253.60;1722359;83;20988;-57
2021/04/20 00:41:42;;;;;;;6.72;4.10;;;;;;;22.83;31.69;100255.36;1722474;83;20933;-57
2021/04/20 00:44:09;;;;;;;3.65;3.22;;;;;;;22.93;31.78;100244.08;1722381;83;20932;-57
2021/04/20 00:46:38;;;;;;;5.15;3.83;;;;;;;22.57;32.31;100232.03;1722561;83;21420;-57
2021/04/20 00:49:06;;;;;;;5.97;3.47;;;;;;;22.83;31.80;100229.91;1731324;81;20994;-57
2021/04/20 00:51:34;;;;;;;4.08;3.22;;;;;;;22.75;31.95;100236.90;1757126;81;20975;-57
2021/04/20 00:54:02;;;;;;;4.12;3.60;;;;;;;22.59;32.24;100232.73;1735341;81;20995;-57
2021/04/20 00:56:31;;;;;;;4.12;3.35;;;;;;;22.79;31.97;100224.05;1757218;81;20924;-57
2021/04/20 00:58:58;;;;;;;4.45;3.62;;;;;;;22.72;31.97;100213.59;1757257;81;20884;-57
2021/04/20 01:01:26;;;;;;;3.42;3.02;;;;;;;22.85;31.70;100196.63;1757269;81;21209;-57
2021/04/20 01:03:53;;;;;;;3.92;3.37;;;;;;;22.62;32.31;100189.06;1735585;81;21030;-57
2021/04/20 01:06:21;;;;;;;3.50;3.05;;;;;;;22.71;32.18;100187.31;1757169;81;20959;-57
2021/04/20 01:08:48;;;;;;;4.25;3.17;;;;;;;22.61;32.19;100174.02;1757206;81;20891;-57
2021/04/20 01:11:17;;;;;;;3.83;3.15;;;;;;;22.89;31.66;100180.58;1757212;81;20968;-57
2021/04/20 01:13:45;;;;;;;4.50;4.00;;;;;;;22.94;31.69;100197.03;1709780;81;21361;-57
2021/04/20 01:16:13;;;;;;;4.75;3.02;;;;;;;22.94;31.53;100198.88;1757183;81;20884;-57
2021/04/20 01:18:41;;;;;;;3.55;3.25;;;;;;;22.79;31.78;100194.58;1757168;81;21027;-57
2021/04/20 01:21:12;;;;;;;3.75;2.85;;;;;;;22.99;31.63;100191.70;1735956;81;21422;-57
2021/04/20 01:24:09;;;;;;;4.20;3.70;;;;;;;22.62;32.22;100193.08;1757417;81;21405;-57
2021/04/20 01:26:43;;;;;;;4.80;2.98;;;;;;;22.73;31.90;100185.81;1757260;81;21431;-57
2021/04/20 01:29:11;;;;;;;3.25;2.95;;;;;;;22.65;31.96;100183.91;1757162;81;20907;-57
2021/04/20 01:31:42;;;;;;;4.58;3.05;;;;;;;22.56;32.21;100185.68;1757254;81;20888;-57
2021/04/20 01:34:10;;;;;;;4.15;3.77;;;;;;;22.88;31.75;100184.28;1735628;81;20931;-57
2021/04/20 01:36:38;;;;;;;3.92;3.08;;;;;;;22.60;32.13;100187.53;1757230;81;20904;-57
2021/04/20 01:39:09;;;;;;;3.12;2.85;;;;;;;22.55;32.20;100177.30;1757228;81;21198;-57
2021/04/20 01:41:36;;;;;;;;;;;;;;;22.60;32.11;100165.63;1738064;81;20935;-57
2021/04/20 01:44:05;;;;;;;3.47;2.87;;;;;;;22.61;32.30;100180.71;1757171;81;20133;-57
2021/04/20 01:46:32;;;;;;;3.85;3.33;;;;;;;22.67;31.83;100176.57;1757193;81;20872;-57
2021/04/20 01:49:00;;;;;;;3.85;3.45;;;;;;;22.60;32.25;100170.98;1757165;81;20904;-57
2021/04/20 01:51:28;;;;;;;3.45;3.15;;;;;;;22.56;32.11;100163.41;1757223;81;21276;-57
2021/04/20 01:53:55;;;;;;;4.25;3.85;;;;;;;22.73;31.98;100151.83;1757162;81;20939;-57
2021/04/20 01:56:23;;;;;;;3.50;2.90;;;;;;;22.78;32.00;100150.04;1757196;81;20971;-57
2021/04/20 01:58:51;;;;;;;3.50;3.20;;;;;;;22.76;31.97;100142.16;1735351;81;20860;-57
2021/04/20 02:01:25;;;;;;;4.00;3.60;;;;;;;22.65;32.02;100138.38;1711582;81;20903;-57
2021/04/20 02:03:53;;;;;;;3.58;3.15;;;;;;;22.72;31.91;100138.59;1757342;81;21371;-57
2021/04/20 02:06:23;;;;;;;4.17;3.33;;;;;;;22.66;31.89;100137.90;1735783;81;20928;-57
2021/04/20 02:08:51;;;;;;;4.10;3.22;;;;;;;22.54;32.19;100143.48;1757342;81;20915;-57
2021/04/20 02:11:21;;;;;;;3.87;3.25;;;;;;;22.68;32.00;100144.78;1735839;81;20931;-57
2021/04/20 02:13:49;;;;;;;5.13;3.37;;;;;;;22.68;31.84;100143.92;1757613;81;20896;-57
2021/04/20 02:16:17;;;;;;;3.90;3.52;;;;;;;22.57;31.87;100140.48;1757440;81;21367;-57
2021/04/20 02:18:47;;;;;;;4.00;3.52;;;;;;;22.83;31.53;100133.48;1735816;81;20991;-57
2021/04/20 02:21:17;;;;;;;3.52;3.22;;;;;;;22.63;31.90;100121.64;1757519;81;20971;-57
2021/04/20 02:23:45;;;;;;;4.65;3.72;;;;;;;22.56;32.23;100105.36;1736035;81;20916;-57
2021/04/20 02:26:17;;;;;;;4.10;2.95;;;;;;;22.68;31.69;100097.92;1735799;81;21023;-56
2021/04/20 02:28:44;;;;;;;3.95;3.12;;;;;;;22.41;32.38;100097.52;1757442;81;22177;-56
2021/04/20 02:31:12;;;;;;;4.03;3.47;;;;;;;22.58;31.92;100087.79;1757309;81;20872;-57
2021/04/20 02:33:41;;;;;;;4.17;3.42;;;;;;;22.62;31.96;100077.94;1757226;81;20931;-57
2021/04/20 02:36:10;;;;;;;5.03;3.52;;;;;;;22.73;31.82;100080.85;1712328;81;20917;-58
2021/04/20 02:38:37;;;;;;;3.83;3.40;;;;;;;22.72;31.91;100079.67;1757335;81;20944;-58
2021/04/20 02:41:06;;;;;;;4.00;3.62;;;;;;;22.56;31.83;100073.22;1735707;81;21785;-58
2021/04/20 02:43:34;;;;;;;4.67;3.25;;;;;;;22.86;31.67;100088.99;1757224;81;20983;-57
2021/04/20 02:46:02;;;;;;;3.60;3.27;;;;;;;22.74;31.98;100079.03;1757306;81;20932;-58
2021/04/20 02:48:31;;;;;;;3.63;3.00;;;;;;;22.64;31.88;100077.77;1754680;81;20924;-57
2021/04/20 02:50:59;;;;;;;3.35;2.87;;;;;;;22.61;31.91;100069.58;1707059;82;20912;-57
2021/04/20 02:53:27;;;;;;;3.45;2.98;;;;;;;22.70;31.57;100073.14;1730712;82;21161;-57
2021/04/20 02:55:56;;;;;;;3.87;2.92;;;;;;;22.67;31.90;100073.95;1730568;82;21008;-57
2021/04/20 02:58:28;;;;;;;4.25;2.90;;;;;;;22.57;31.83;100079.41;1750309;82;20956;-57
2021/04/20 03:39:56;;;;;;;4.95;3.17;;;;;;;22.61;31.90;100053.52;1719470;82;21073;-59
2021/04/20 03:42:27;;;;;;;3.92;3.15;;;;;;;22.47;32.30;100058.09;1698937;83;21628;-57
2021/04/20 03:51:56;;;;;;;4.53;2.87;;;;;;;22.61;32.07;100057.53;1749644;81;20980;-58
2021/04/20 03:54:29;;;;;;;3.83;3.10;;;;;;;22.42;32.26;100042.48;1727547;82;21497;-58
2021/04/20 03:56:59;;;;;;;3.98;3.58;;;;;;;22.81;31.77;100047.93;1724022;82;21474;-58
2021/04/20 03:59:28;;;;;;;3.87;3.22;;;;;;;22.93;31.55;100041.80;1723927;82;21043;-59
2021/04/20 04:01:57;;;;;;;3.83;3.08;;;;;;;22.67;31.80;100032.44;1751356;81;21000;-59
2021/04/20 04:04:26;;;;;;;3.40;3.08;;;;;;;22.54;31.99;100027.02;1724244;82;21063;-59
2021/04/20 04:06:55;;;;;;;4.00;3.65;;;;;;;22.62;31.89;100025.72;1724257;82;21028;-57
2021/04/20 04:09:24;;;;;;;3.33;2.58;;;;;;;22.73;31.89;100023.78;1751258;82;21588;-58
2021/04/20 04:12:00;;;;;;;5.03;4.00;;;;;;;22.76;31.66;100018.09;1723978;81;20953;-58
2021/04/20 04:14:49;;;;;;;4.03;3.62;;;;;;;22.73;31.74;100017.09;1751468;81;21430;-58
2021/04/20 04:17:18;;;;;;;5.78;3.90;;;;;;;22.70;31.82;100019.58;1712521;83;20963;-57
2021/04/20 04:19:49;;;;;;;3.80;3.40;;;;;;;22.76;31.64;100012.74;1642413;85;21074;-58
2021/04/20 04:22:22;;;;;;;3.60;3.27;;;;;;;22.90;31.48;100005.45;1688608;85;21477;-58
2021/04/20 04:24:56;;;;;;;4.30;3.83;;;;;;;22.60;31.97;99997.42;1640843;86;20964;-58
2021/04/20 04:27:27;;;;;;;6.10;3.47;;;;;;;22.62;31.86;99992.25;1641040;86;21019;-59
2021/04/20 04:30:07;;;;;;;5.42;3.75;;;;;;;22.66;31.82;99990.61;1660126;86;21000;-58
2021/04/20 04:32:36;;;;;;;5.28;3.92;;;;;;;22.59;32.03;99985.87;1660104;85;21267;-58
2021/04/20 04:35:05;;;;;;;4.37;3.67;;;;;;;22.65;31.69;99991.09;1640954;86;21186;-59
2021/04/20 04:37:35;;;;;;;5.37;3.90;;;;;;;22.74;31.63;99986.13;1659995;86;20999;-59
2021/04/20 04:40:05;;;;;;;4.23;3.17;;;;;;;22.77;31.69;99986.31;1660294;86;21019;-58
2021/04/20 04:42:32;;;;;;;5.17;3.07;;;;;;;22.67;31.90;99989.11;1641120;86;21055;-58
2021/04/20 04:45:05;;;;;;;3.80;3.40;;;;;;;22.70;31.61;99992.80;1660034;85;21465;-58
2021/04/20 04:47:38;;;;;;;5.47;3.45;;;;;;;22.84;31.68;99983.31;1659830;86;22174;-58
2021/04/20 04:50:09;;;;;;;4.67;3.58;;;;;;;22.81;31.66;99978.80;1659996;86;20957;-58
2021/04/20 04:52:39;;;;;;;5.58;3.98;;;;;;;22.63;31.94;99978.37;1660107;86;20936;-58
2021/04/20 04:55:09;;;;;;;4.40;3.80;;;;;;;22.66;31.87;99976.71;1641111;86;21113;-58
2021/04/20 04:57:36;;;;;;;4.97;4.05;;;;;;;22.85;31.60;99979.64;1640943;86;20937;-58
2021/04/20 05:00:07;;;;;;;4.25;3.60;;;;;;;22.48;32.13;99975.45;1640928;86;21009;-58
2021/04/20 05:02:35;;;;;;;3.95;3.60;;;;;;;22.58;31.99;99975.34;1640985;86;21000;-59
2021/04/20 05:05:09;;;;;;;4.92;3.92;;;;;;;22.62;31.86;99970.00;1640155;86;21008;-58
2021/04/20 05:07:36;;;;;;;4.42;3.58;;;;;;;22.77;31.71;99967.56;1660096;86;21478;-58
2021/04/20 05:10:08;;;;;;;3.33;2.98;;;;;;;22.84;31.45;99969.09;1660020;86;21008;-57
2021/04/20 05:12:36;;;;;;;6.60;3.70;;;;;;;22.55;32.07;99975.66;1640936;86;21772;-58
2021/04/20 05:15:12;;;;;;;6.17;3.58;;;;;;;22.90;31.65;99961.77;1659478;86;20996;-58
2021/04/20 05:17:41;;;;;;;4.92;3.62;;;;;;;22.47;32.10;99957.70;1632065;87;20968;-58
2021/04/20 05:20:18;;;;;;;4.78;3.70;;;;;;;22.73;31.89;99956.31;1649070;87;20944;-58
2021/04/20 05:22:46;;;;;;;4.20;3.80;;;;;;;22.92;31.53;99945.88;1632014;85;21200;-59
2021/04/20 05:25:17;;;;;;;5.90;4.08;;;;;;;22.67;31.96;99944.06;1649029;87;21431;-58
2021/04/20 05:27:49;;;;;;;3.62;3.27;;;;;;;22.89;31.65;99950.70;1648903;86;20988;-58
2021/04/20 05:30:18;;;;;;;;;;;;;;;22.54;32.12;99954.72;1651545;85;20940;-59
2021/04/20 05:32:49;;;;;;;4.60;3.20;;;;;;;22.85;31.65;99954.70;1631175;87;20630;-59
2021/04/20 05:35:15;;;;;;;6.03;4.65;;;;;;;22.64;31.98;99951.92;1649111;85;20995;-58
2021/04/20 05:37:46;;;;;;;5.72;4.05;;;;;;;22.47;32.10;99952.35;1649184;85;21290;-59
2021/04/20 05:40:24;;;;;;;4.83;4.37;;;;;;;22.84;31.64;99951.69;1649241;85;20972;-59
2021/04/20 05:42:52;;;;;;;5.30;3.83;;;;;;;22.67;32.19;99950.77;1632068;87;21485;-59
2021/04/20 05:45:20;;;;;;;4.20;3.77;;;;;;;22.76;31.72;99954.68;1649163;87;20944;-58
2021/04/20 05:47:49;;;;;;;6.65;5.42;;;;;;;22.69;32.00;99956.30;1649198;86;21099;-58
2021/04/20 05:50:31;;;;;;;4.42;3.98;;;;;;;22.50;32.18;99964.58;1632276;87;21477;-58
2021/04/20 05:52:59;;;;;;;3.58;3.22;;;;;;;22.76;31.95;99966.73;1633988;87;21944;-58
2021/04/20 05:55:28;;;;;;;3.87;3.02;;;;;;;22.55;32.24;99971.64;1649327;86;20995;-57
2021/04/20 05:57:56;;;;;;;5.35;3.85;;;;;;;22.63;32.06;99969.01;1649121;85;20931;-58
2021/04/20 06:00:25;;;;;;;3.95;3.30;;;;;;;22.63;31.96;99970.34;1632140;87;21009;-58
2021/04/20 06:02:54;;;;;;;5.35;4.08;;;;;;;22.85;31.83;99965.42;1649110;87;21182;-57
2021/04/20 06:05:26;;;;;;;3.77;3.27;;;;;;;22.66;31.93;99963.84;1649213;85;20991;-57
2021/04/20 06:07:57;;;;;;;5.65;4.05;;;;;;;22.80;31.76;99968.56;1649210;85;21019;-58
2021/04/20 06:10:27;;;;;;;4.42;3.12;;;;;;;22.90;31.66;99959.09;1649110;87;21000;-58
2021/04/20 06:12:54;;;;;;;4.42;4.03;;;;;;;22.69;31.91;99960.31;1632211;87;20920;-58
2021/04/20 06:15:23;;;;;;;4.62;3.60;;;;;;;22.71;31.86;99957.47;1632067;85;21967;-58
2021/04/20 06:17:52;;;;;;;4.33;3.72;;;;;;;22.56;32.34;99956.75;1649142;86;20940;-57
2021/04/20 06:20:23;;;;;;;5.23;4.20;;;;;;;22.92;31.56;99961.95;1649410;85;20956;-58
2021/04/20 06:22:54;;;;;;;4.15;3.60;;;;;;;22.89;31.64;99956.89;1649351;87;21090;-58
2021/04/20 06:25:22;;;;;;;3.75;3.22;;;;;;;22.93;31.60;99952.89;1649206;86;21019;-58
2021/04/20 06:27:50;;;;;;;4.78;4.35;;;;;;;22.72;31.97;99961.84;1649193;87;21391;-58
2021/04/20 06:30:20;;;;;;;5.08;3.30;;;;;;;22.75;32.06;99960.20;1649084;85;20948;-57
2021/04/20 06:32:48;;;;;;;4.15;3.77;;;;;;;22.54;32.32;99965.43;1632105;87;21635;-57
2021/04/20 06:35:18;;;;;;;3.98;3.27;;;;;;;22.88;31.72;99959.73;1649126;85;20992;-57
2021/04/20 06:37:48;;;;;;;4.75;3.75;;;;;;;22.82;32.05;99962.56;1649278;86;20987;-58
2021/04/20 06:40:24;;;;;;;4.17;3.77;;;;;;;22.68;32.12;99962.68;1632203;87;21177;-58
2021/04/20 06:42:55;;;;;;;4.30;3.65;;;;;;;22.62;32.21;99964.64;1631965;87;20992;-59
2021/04/20 06:45:57;;;;;;;4.30;3.47;;;;;;;22.85;31.93;99968.10;1649214;86;21011;-58
2021/04/20 06:48:51;;;;;;;4.95;3.98;;;;;;;22.65;32.13;99963.48;1649105;85;20964;-58
2021/04/20 06:51:22;;;;;;;5.50;3.67;;;;;;;22.68;32.08;99964.50;1649177;86;20928;-58
2021/04/20 06:54:25;;;;;;;4.60;3.72;;;;;;;22.57;32.15;99961.09;1632020;87;21138;-58
2021/04/20 06:57:13;;;;;;;;;;;;;;;22.67;31.94;99960.13;1651540;87;21039;-57
2021/04/20 07:00:16;;;;;;;4.50;3.77;;;;;;;22.66;32.34;99958.48;1649185;87;20121;-58
2021/04/20 07:02:51;;;;;;;4.20;3.50;;;;;;;22.90;31.83;99960.43;1649075;85;21552;-58
2021/04/20 07:08:42;;;;;;;4.08;3.10;;;;;;;22.75;32.17;99952.16;1799745;78;22747;-57
2021/04/20 07:11:14;;;;;;;4.90;3.22;;;;;;;22.73;32.02;99952.81;1774033;80;21008;-58
2021/04/20 07:13:45;;;;;;;5.60;4.33;;;;;;;22.65;32.18;99945.57;1725886;81;20998;-59
2021/04/20 07:16:34;;;;;;;4.35;3.52;;;;;;;22.65;32.42;99940.73;1711819;82;20925;-57
2021/04/20 07:19:41;;;;;;;4.87;3.70;;;;;;;22.50;32.82;99937.81;1743541;80;20937;-58
2021/04/20 07:22:44;;;;;;;4.83;3.33;;;;;;;22.85;31.96;99932.77;1743594;81;21004;-58
2021/04/20 07:25:33;;;;;;;5.87;4.08;;;;;;;22.78;32.23;99927.73;1742577;80;20917;-58
2021/04/20 07:28:36;;;;;;;5.47;3.42;;;;;;;22.78;32.32;99921.03;1743543;80;21361;-58
2021/04/20 07:31:32;;;;;;;3.55;3.15;;;;;;;22.73;32.44;99913.47;1743528;82;21010;-58
2021/04/20 07:34:32;;;;;;;3.72;3.37;;;;;;;22.79;32.32;99906.14;1743474;80;20892;-58
2021/04/20 07:37:32;;;;;;;3.85;3.42;;;;;;;23.00;32.04;99895.48;1712043;82;20956;-58
2021/04/20 07:40:32;;;;;;;3.70;3.37;;;;;;;22.67;32.65;99895.38;1743513;82;20917;-59
2021/04/20 07:43:30;;;;;;;3.52;3.22;;;;;;;22.75;32.56;99899.43;1743722;80;21201;-60
2021/04/20 07:46:16;;;;;;;5.00;4.47;;;;;;;22.57;32.74;99891.47;1743691;82;21450;-58
2021/04/20 07:49:07;;;;;;;3.90;3.58;;;;;;;22.68;32.59;99885.50;1711987;82;20960;-59
2021/04/20 07:51:53;;;;;;;4.42;3.52;;;;;;;22.56;32.63;99883.12;1743514;80;20976;-57
2021/04/20 07:54:51;;;;;;;4.17;3.72;;;;;;;22.74;32.41;99876.32;1743531;82;21027;-57
2021/04/20 07:57:26;;;;;;;4.72;4.00;;;;;;;22.66;32.60;99876.81;1743181;82;21282;-55
2021/04/20 08:00:14;;;;;;;4.30;3.83;;;;;;;22.37;33.21;99870.83;1743446;80;20945;-57
2021/04/20 08:03:26;;;;;;;4.70;3.83;;;;;;;22.51;33.16;99861.86;1743477;82;20909;-63
2021/04/20 08:06:09;;;;;;;7.15;4.83;;;;;;;22.35;33.73;99862.11;1638003;85;21018;-62
2021/04/20 08:08:48;;;;;;;6.75;5.15;;;;;;;23.10;34.66;99849.29;1681183;85;20983;-62
2021/04/20 08:11:32;;;;;;;8.10;5.77;;;;;;;23.16;34.55;99846.98;1675223;84;22347;-52
2021/04/20 10:02:53;;;;;;;356.50;226.70;;;;;;;21.20;39.16;98911.04;1783023;78;22364;-63
2021/04/20 10:05:50;;;;;;;12.82;8.88;;;;;;;22.03;37.08;98911.84;1748962;81;21218;-61
2021/04/20 10:09:02;;;;;;;14.28;9.45;;;;;;;22.62;35.58;98899.88;1697992;80;197151;-65
2021/04/20 10:12:11;;;;;;;15.72;10.98;;;;;;;22.57;35.86;98894.25;1569020;90;27998;-62
